sensor_id;sensor_type;location;lat;lon;timestamp;P1;durP1;ratioP1;P2;durP2;ratioP2
61200;SDS011;47065;52.898;6.992;2023-05-08T00:01:07;12.82;;;11.15;;
61200;SDS011;47065;52.898;6.992;2023-05-08T00:03:33;13.95;;;11.20;;
61200;SDS011;47065;52.898;6.992;2023-05-08T00:05:58;14.38;;;11.05;;
61200;SDS011;47065;52.898;6.992;2023-05-08T00:08:27;14.23;;;12.35;;
61200;SDS011;47065;52.898;6.992;2023-05-08T00:10:53;11.60;;;10.25;;
61200;SDS011;47065;52.898;6.992;2023-05-08T00:13:18;12.73;;;11.40;;
61200;SDS011;47065;52.898;6.992;2023-05-08T00:15:44;13.68;;;10.65;;
61200;SDS011;47065;52.898;6.992;2023-05-08T00:18:09;13.48;;;11.93;;
61200;SDS011;47065;52.898;6.992;2023-05-08T00:20:35;12.43;;;11.13;;
61200;SDS011;47065;52.898;6.992;2023-05-08T00:23:01;15.18;;;11.82;;
61200;SDS011;47065;52.898;6.992;2023-05-08T00:25:27;12.35;;;10.50;;
61200;SDS011;47065;52.898;6.992;2023-05-08T00:27:54;14.23;;;12.02;;
61200;SDS011;47065;52.898;6.992;2023-05-08T00:30:21;15.10;;;12.23;;
61200;SDS011;47065;52.898;6.992;2023-05-08T00:32:47;16.42;;;12.20;;
61200;SDS011;47065;52.898;6.992;2023-05-08T00:35:12;17.55;;;11.73;;
61200;SDS011;47065;52.898;6.992;2023-05-08T00:37:38;14.60;;;12.15;;
61200;SDS011;47065;52.898;6.992;2023-05-08T00:40:06;14.95;;;11.80;;
61200;SDS011;47065;52.898;6.992;2023-05-08T00:42:32;12.82;;;11.52;;
61200;SDS011;47065;52.898;6.992;2023-05-08T00:44:58;13.80;;;11.20;;
61200;SDS011;47065;52.898;6.992;2023-05-08T00:47:23;14.93;;;12.55;;
61200;SDS011;47065;52.898;6.992;2023-05-08T00:49:49;15.48;;;12.65;;
61200;SDS011;47065;52.898;6.992;2023-05-08T00:52:15;15.35;;;10.63;;
61200;SDS011;47065;52.898;6.992;2023-05-08T00:54:42;14.82;;;12.15;;
61200;SDS011;47065;52.898;6.992;2023-05-08T00:57:08;14.02;;;12.07;;
61200;SDS011;47065;52.898;6.992;2023-05-08T00:59:34;12.68;;;11.15;;
61200;SDS011;47065;52.898;6.992;2023-05-08T01:02:01;14.98;;;11.82;;
61200;SDS011;47065;52.898;6.992;2023-05-08T01:04:27;14.43;;;12.77;;
61200;SDS011;47065;52.898;6.992;2023-05-08T01:06:54;13.90;;;11.50;;
61200;SDS011;47065;52.898;6.992;2023-05-08T01:09:20;15.73;;;12.30;;
61200;SDS011;47065;52.898;6.992;2023-05-08T01:25:24;14.60;;;11.10;;
61200;SDS011;47065;52.898;6.992;2023-05-08T01:34:02;14.75;;;11.68;;
61200;SDS011;47065;52.898;6.992;2023-05-08T01:36:35;13.20;;;11.80;;
61200;SDS011;47065;52.898;6.992;2023-05-08T01:39:16;13.38;;;11.18;;
61200;SDS011;47065;52.898;6.992;2023-05-08T01:42:04;13.43;;;11.85;;
61200;SDS011;47065;52.898;6.992;2023-05-08T01:44:35;15.15;;;11.23;;
61200;SDS011;47065;52.898;6.992;2023-05-08T01:47:08;15.23;;;11.85;;
61200;SDS011;47065;52.898;6.992;2023-05-08T01:49:39;14.90;;;11.90;;
61200;SDS011;47065;52.898;6.992;2023-05-08T01:52:17;13.25;;;11.60;;
61200;SDS011;47065;52.898;6.992;2023-05-08T01:54:57;14.63;;;12.20;;
61200;SDS011;47065;52.898;6.992;2023-05-08T01:57:28;13.18;;;11.35;;
61200;SDS011;47065;52.898;6.992;2023-05-08T01:59:55;14.80;;;11.63;;
61200;SDS011;47065;52.898;6.992;2023-05-08T02:02:24;15.20;;;11.80;;
61200;SDS011;47065;52.898;6.992;2023-05-08T02:04:52;13.63;;;12.18;;
61200;SDS011;47065;52.898;6.992;2023-05-08T02:07:21;14.43;;;10.93;;
61200;SDS011;47065;52.898;6.992;2023-05-08T02:09:48;14.65;;;11.10;;
61200;SDS011;47065;52.898;6.992;2023-05-08T02:12:16;13.82;;;11.82;;
61200;SDS011;47065;52.898;6.992;2023-05-08T02:14:42;15.25;;;11.90;;
61200;SDS011;47065;52.898;6.992;2023-05-08T02:17:10;13.68;;;12.05;;
61200;SDS011;47065;52.898;6.992;2023-05-08T02:19:38;12.50;;;11.20;;
61200;SDS011;47065;52.898;6.992;2023-05-08T02:22:06;14.45;;;11.15;;
61200;SDS011;47065;52.898;6.992;2023-05-08T02:24:33;14.32;;;12.52;;
61200;SDS011;47065;52.898;6.992;2023-05-08T02:27:00;13.10;;;11.15;;
61200;SDS011;47065;52.898;6.992;2023-05-08T02:29:26;12.70;;;11.35;;
61200;SDS011;47065;52.898;6.992;2023-05-08T02:31:53;13.90;;;11.60;;
61200;SDS011;47065;52.898;6.992;2023-05-08T02:34:20;13.88;;;12.05;;
61200;SDS011;47065;52.898;6.992;2023-05-08T02:36:49;13.50;;;11.43;;
61200;SDS011;47065;52.898;6.992;2023-05-08T02:39:16;14.82;;;12.27;;
61200;SDS011;47065;52.898;6.992;2023-05-08T02:41:43;15.15;;;13.23;;
61200;SDS011;47065;52.898;6.992;2023-05-08T02:44:10;15.23;;;12.20;;
61200;SDS011;47065;52.898;6.992;2023-05-08T02:46:51;13.88;;;11.68;;
61200;SDS011;47065;52.898;6.992;2023-05-08T02:49:30;15.88;;;13.40;;
61200;SDS011;47065;52.898;6.992;2023-05-08T03:02:54;15.73;;;11.85;;
61200;SDS011;47065;52.898;6.992;2023-05-08T03:05:28;14.57;;;11.45;;
61200;SDS011;47065;52.898;6.992;2023-05-08T03:07:58;17.65;;;13.82;;
61200;SDS011;47065;52.898;6.992;2023-05-08T03:10:30;17.15;;;12.50;;
61200;SDS011;47065;52.898;6.992;2023-05-08T03:12:58;14.80;;;12.90;;
61200;SDS011;47065;52.898;6.992;2023-05-08T03:15:28;18.77;;;12.57;;
61200;SDS011;47065;52.898;6.992;2023-05-08T03:18:08;16.77;;;12.85;;
61200;SDS011;47065;52.898;6.992;2023-05-08T03:20:37;16.13;;;12.57;;
61200;SDS011;47065;52.898;6.992;2023-05-08T03:23:06;15.93;;;12.80;;
61200;SDS011;47065;52.898;6.992;2023-05-08T03:25:34;14.02;;;12.35;;
61200;SDS011;47065;52.898;6.992;2023-05-08T03:28:04;17.10;;;13.45;;
61200;SDS011;47065;52.898;6.992;2023-05-08T03:30:31;18.38;;;12.50;;
61200;SDS011;47065;52.898;6.992;2023-05-08T03:32:58;13.77;;;11.40;;
61200;SDS011;47065;52.898;6.992;2023-05-08T03:35:27;16.33;;;12.38;;
61200;SDS011;47065;52.898;6.992;2023-05-08T03:37:55;15.60;;;12.70;;
61200;SDS011;47065;52.898;6.992;2023-05-08T03:40:22;16.00;;;12.63;;
61200;SDS011;47065;52.898;6.992;2023-05-08T03:42:47;16.80;;;12.23;;
61200;SDS011;47065;52.898;6.992;2023-05-08T03:45:14;15.63;;;12.07;;
61200;SDS011;47065;52.898;6.992;2023-05-08T03:47:42;13.80;;;11.88;;
61200;SDS011;47065;52.898;6.992;2023-05-08T03:50:08;16.25;;;12.38;;
61200;SDS011;47065;52.898;6.992;2023-05-08T03:52:34;16.10;;;12.25;;
61200;SDS011;47065;52.898;6.992;2023-05-08T03:55:00;14.48;;;12.45;;
61200;SDS011;47065;52.898;6.992;2023-05-08T03:57:33;13.85;;;12.02;;
61200;SDS011;47065;52.898;6.992;2023-05-08T04:00:11;15.77;;;12.65;;
61200;SDS011;47065;52.898;6.992;2023-05-08T04:02:46;14.98;;;11.38;;
61200;SDS011;47065;52.898;6.992;2023-05-08T04:10:30;13.82;;;11.27;;
61200;SDS011;47065;52.898;6.992;2023-05-08T04:13:02;15.68;;;12.52;;
61200;SDS011;47065;52.898;6.992;2023-05-08T04:16:11;13.95;;;11.60;;
61200;SDS011;47065;52.898;6.992;2023-05-08T04:18:28;15.80;;;12.18;;
61200;SDS011;47065;52.898;6.992;2023-05-08T04:20:55;13.20;;;11.77;;
61200;SDS011;47065;52.898;6.992;2023-05-08T04:23:22;13.93;;;12.35;;
61200;SDS011;47065;52.898;6.992;2023-05-08T04:25:50;14.85;;;11.98;;
61200;SDS011;47065;52.898;6.992;2023-05-08T04:28:17;14.27;;;12.48;;
61200;SDS011;47065;52.898;6.992;2023-05-08T04:30:43;14.57;;;12.20;;
61200;SDS011;47065;52.898;6.992;2023-05-08T04:33:10;14.75;;;12.00;;
61200;SDS011;47065;52.898;6.992;2023-05-08T04:35:36;14.35;;;12.85;;
61200;SDS011;47065;52.898;6.992;2023-05-08T04:38:02;15.27;;;11.95;;
61200;SDS011;47065;52.898;6.992;2023-05-08T04:40:27;13.75;;;11.32;;
61200;SDS011;47065;52.898;6.992;2023-05-08T04:42:53;15.43;;;12.30;;
61200;SDS011;47065;52.898;6.992;2023-05-08T04:45:19;15.25;;;10.90;;
61200;SDS011;47065;52.898;6.992;2023-05-08T04:47:45;11.63;;;10.43;;
61200;SDS011;47065;52.898;6.992;2023-05-08T04:50:10;14.82;;;11.15;;
61200;SDS011;47065;52.898;6.992;2023-05-08T04:52:36;13.60;;;11.23;;
61200;SDS011;47065;52.898;6.992;2023-05-08T04:55:02;13.25;;;11.23;;
61200;SDS011;47065;52.898;6.992;2023-05-08T04:57:28;12.88;;;10.63;;
61200;SDS011;47065;52.898;6.992;2023-05-08T04:59:53;13.82;;;11.23;;
61200;SDS011;47065;52.898;6.992;2023-05-08T05:02:19;14.52;;;10.98;;
61200;SDS011;47065;52.898;6.992;2023-05-08T05:04:45;14.38;;;10.98;;
61200;SDS011;47065;52.898;6.992;2023-05-08T05:07:10;15.13;;;10.77;;
61200;SDS011;47065;52.898;6.992;2023-05-08T05:09:36;13.60;;;11.02;;
61200;SDS011;47065;52.898;6.992;2023-05-08T05:12:03;12.02;;;10.45;;
61200;SDS011;47065;52.898;6.992;2023-05-08T05:14:30;14.05;;;10.93;;
61200;SDS011;47065;52.898;6.992;2023-05-08T05:16:57;12.95;;;10.18;;
61200;SDS011;47065;52.898;6.992;2023-05-08T05:19:22;12.88;;;10.52;;
61200;SDS011;47065;52.898;6.992;2023-05-08T05:21:48;13.75;;;11.57;;
61200;SDS011;47065;52.898;6.992;2023-05-08T05:24:14;13.15;;;10.10;;
61200;SDS011;47065;52.898;6.992;2023-05-08T05:26:39;11.65;;;10.38;;
61200;SDS011;47065;52.898;6.992;2023-05-08T05:29:05;12.07;;;10.18;;
61200;SDS011;47065;52.898;6.992;2023-05-08T05:31:31;12.40;;;10.77;;
61200;SDS011;47065;52.898;6.992;2023-05-08T05:33:57;12.00;;;10.73;;
61200;SDS011;47065;52.898;6.992;2023-05-08T05:36:22;13.60;;;10.77;;
61200;SDS011;47065;52.898;6.992;2023-05-08T05:38:48;12.85;;;10.38;;
61200;SDS011;47065;52.898;6.992;2023-05-08T05:41:14;13.15;;;11.25;;
61200;SDS011;47065;52.898;6.992;2023-05-08T05:43:39;13.10;;;11.30;;
61200;SDS011;47065;52.898;6.992;2023-05-08T05:46:06;13.15;;;10.30;;
61200;SDS011;47065;52.898;6.992;2023-05-08T05:48:33;14.73;;;10.95;;
61200;SDS011;47065;52.898;6.992;2023-05-08T05:50:59;12.77;;;10.82;;
61200;SDS011;47065;52.898;6.992;2023-05-08T05:53:27;23.02;;;11.40;;
61200;SDS011;47065;52.898;6.992;2023-05-08T05:55:53;13.40;;;11.55;;
61200;SDS011;47065;52.898;6.992;2023-05-08T05:58:19;13.32;;;10.73;;
61200;SDS011;47065;52.898;6.992;2023-05-08T06:00:44;11.98;;;10.55;;
61200;SDS011;47065;52.898;6.992;2023-05-08T06:03:11;13.15;;;10.93;;
61200;SDS011;47065;52.898;6.992;2023-05-08T06:05:38;13.05;;;11.30;;
61200;SDS011;47065;52.898;6.992;2023-05-08T06:08:04;12.48;;;11.10;;
61200;SDS011;47065;52.898;6.992;2023-05-08T06:10:30;13.68;;;11.05;;
61200;SDS011;47065;52.898;6.992;2023-05-08T06:12:56;13.70;;;11.35;;
61200;SDS011;47065;52.898;6.992;2023-05-08T06:15:22;11.60;;;10.40;;
61200;SDS011;47065;52.898;6.992;2023-05-08T06:17:47;14.23;;;11.48;;
61200;SDS011;47065;52.898;6.992;2023-05-08T06:20:13;12.85;;;11.30;;
61200;SDS011;47065;52.898;6.992;2023-05-08T06:22:38;12.60;;;11.07;;
61200;SDS011;47065;52.898;6.992;2023-05-08T06:25:05;12.82;;;11.18;;
61200;SDS011;47065;52.898;6.992;2023-05-08T06:27:32;13.88;;;10.85;;
61200;SDS011;47065;52.898;6.992;2023-05-08T06:30:01;12.65;;;10.80;;
61200;SDS011;47065;52.898;6.992;2023-05-08T06:32:28;12.52;;;10.73;;
61200;SDS011;47065;52.898;6.992;2023-05-08T06:34:54;13.98;;;11.27;;
61200;SDS011;47065;52.898;6.992;2023-05-08T06:37:20;11.93;;;10.38;;
61200;SDS011;47065;52.898;6.992;2023-05-08T06:39:46;12.52;;;11.23;;
61200;SDS011;47065;52.898;6.992;2023-05-08T06:42:12;13.25;;;11.95;;
61200;SDS011;47065;52.898;6.992;2023-05-08T06:44:37;11.57;;;10.35;;
61200;SDS011;47065;52.898;6.992;2023-05-08T06:47:04;12.00;;;9.80;;
61200;SDS011;47065;52.898;6.992;2023-05-08T06:49:30;13.27;;;10.80;;
61200;SDS011;47065;52.898;6.992;2023-05-08T06:51:56;12.38;;;11.05;;
61200;SDS011;47065;52.898;6.992;2023-05-08T06:54:22;12.80;;;11.07;;
61200;SDS011;47065;52.898;6.992;2023-05-08T06:56:47;11.43;;;10.23;;
61200;SDS011;47065;52.898;6.992;2023-05-08T06:59:13;12.23;;;10.68;;
61200;SDS011;47065;52.898;6.992;2023-05-08T07:01:38;15.30;;;10.82;;
61200;SDS011;47065;52.898;6.992;2023-05-08T07:04:05;12.52;;;10.13;;
61200;SDS011;47065;52.898;6.992;2023-05-08T07:06:31;11.95;;;10.63;;
61200;SDS011;47065;52.898;6.992;2023-05-08T07:08:56;11.18;;;10.00;;
61200;SDS011;47065;52.898;6.992;2023-05-08T07:11:22;11.05;;;9.20;;
61200;SDS011;47065;52.898;6.992;2023-05-08T07:13:48;11.18;;;10.05;;
61200;SDS011;47065;52.898;6.992;2023-05-08T07:16:14;12.57;;;9.70;;
61200;SDS011;47065;52.898;6.992;2023-05-08T07:18:40;16.27;;;10.95;;
61200;SDS011;47065;52.898;6.992;2023-05-08T07:21:06;13.32;;;10.57;;
61200;SDS011;47065;52.898;6.992;2023-05-08T07:23:32;10.77;;;9.73;;
61200;SDS011;47065;52.898;6.992;2023-05-08T07:25:58;11.48;;;10.27;;
61200;SDS011;47065;52.898;6.992;2023-05-08T07:28:24;11.73;;;9.75;;
61200;SDS011;47065;52.898;6.992;2023-05-08T07:30:49;11.57;;;9.93;;
61200;SDS011;47065;52.898;6.992;2023-05-08T07:33:15;12.73;;;10.65;;
61200;SDS011;47065;52.898;6.992;2023-05-08T07:35:41;11.77;;;10.25;;
61200;SDS011;47065;52.898;6.992;2023-05-08T07:38:07;11.02;;;9.82;;
61200;SDS011;47065;52.898;6.992;2023-05-08T07:40:33;10.50;;;9.45;;
61200;SDS011;47065;52.898;6.992;2023-05-08T07:42:59;10.82;;;9.73;;
61200;SDS011;47065;52.898;6.992;2023-05-08T07:45:25;10.80;;;9.68;;
61200;SDS011;47065;52.898;6.992;2023-05-08T07:47:51;11.90;;;9.85;;
61200;SDS011;47065;52.898;6.992;2023-05-08T07:50:18;10.77;;;9.65;;
61200;SDS011;47065;52.898;6.992;2023-05-08T07:52:45;12.25;;;10.88;;
61200;SDS011;47065;52.898;6.992;2023-05-08T07:55:11;11.68;;;10.43;;
61200;SDS011;47065;52.898;6.992;2023-05-08T07:57:38;11.23;;;10.13;;
61200;SDS011;47065;52.898;6.992;2023-05-08T08:00:05;12.32;;;10.23;;
61200;SDS011;47065;52.898;6.992;2023-05-08T08:02:32;10.40;;;9.30;;
61200;SDS011;47065;52.898;6.992;2023-05-08T08:04:58;13.02;;;9.80;;
61200;SDS011;47065;52.898;6.992;2023-05-08T08:07:23;11.82;;;10.63;;
61200;SDS011;47065;52.898;6.992;2023-05-08T08:09:49;11.20;;;9.82;;
61200;SDS011;47065;52.898;6.992;2023-05-08T08:12:14;12.15;;;10.73;;
61200;SDS011;47065;52.898;6.992;2023-05-08T08:14:40;11.43;;;10.32;;
61200;SDS011;47065;52.898;6.992;2023-05-08T08:17:06;10.80;;;9.73;;
61200;SDS011;47065;52.898;6.992;2023-05-08T08:19:32;11.82;;;10.60;;
61200;SDS011;47065;52.898;6.992;2023-05-08T08:21:57;11.60;;;10.40;;
61200;SDS011;47065;52.898;6.992;2023-05-08T08:24:23;11.77;;;10.65;;
61200;SDS011;47065;52.898;6.992;2023-05-08T08:26:49;11.80;;;10.43;;
61200;SDS011;47065;52.898;6.992;2023-05-08T08:29:15;13.40;;;10.82;;
61200;SDS011;47065;52.898;6.992;2023-05-08T08:31:41;11.88;;;10.68;;
61200;SDS011;47065;52.898;6.992;2023-05-08T08:34:07;12.10;;;9.77;;
61200;SDS011;47065;52.898;6.992;2023-05-08T08:36:32;10.90;;;8.77;;
61200;SDS011;47065;52.898;6.992;2023-05-08T08:38:58;10.88;;;9.40;;
61200;SDS011;47065;52.898;6.992;2023-05-08T08:41:24;10.75;;;9.75;;
61200;SDS011;47065;52.898;6.992;2023-05-08T08:43:51;8.80;;;7.93;;
61200;SDS011;47065;52.898;6.992;2023-05-08T08:46:18;9.57;;;8.75;;
61200;SDS011;47065;52.898;6.992;2023-05-08T08:48:48;10.23;;;9.07;;
61200;SDS011;47065;52.898;6.992;2023-05-08T08:51:26;10.73;;;9.68;;
61200;SDS011;47065;52.898;6.992;2023-05-08T08:56:31;9.98;;;7.90;;
61200;SDS011;47065;52.898;6.992;2023-05-08T08:58:58;7.90;;;7.10;;
61200;SDS011;47065;52.898;6.992;2023-05-08T09:01:26;8.48;;;7.70;;
61200;SDS011;47065;52.898;6.992;2023-05-08T09:03:55;9.00;;;8.07;;
61200;SDS011;47065;52.898;6.992;2023-05-08T09:06:21;8.20;;;7.50;;
61200;SDS011;47065;52.898;6.992;2023-05-08T09:08:47;8.40;;;7.70;;
61200;SDS011;47065;52.898;6.992;2023-05-08T09:11:14;10.75;;;7.38;;
61200;SDS011;47065;52.898;6.992;2023-05-08T09:13:39;9.80;;;8.98;;
61200;SDS011;47065;52.898;6.992;2023-05-08T09:16:05;9.18;;;8.13;;
61200;SDS011;47065;52.898;6.992;2023-05-08T09:18:31;8.93;;;8.00;;
61200;SDS011;47065;52.898;6.992;2023-05-08T09:20:56;8.50;;;7.80;;
61200;SDS011;47065;52.898;6.992;2023-05-08T09:23:25;8.60;;;7.90;;
61200;SDS011;47065;52.898;6.992;2023-05-08T09:25:51;7.78;;;6.97;;
61200;SDS011;47065;52.898;6.992;2023-05-08T09:28:20;9.70;;;7.60;;
61200;SDS011;47065;52.898;6.992;2023-05-08T09:30:56;7.75;;;7.07;;
61200;SDS011;47065;52.898;6.992;2023-05-08T09:33:24;8.57;;;7.88;;
61200;SDS011;47065;52.898;6.992;2023-05-08T09:35:51;8.88;;;8.18;;
61200;SDS011;47065;52.898;6.992;2023-05-08T09:38:33;8.77;;;7.97;;
61200;SDS011;47065;52.898;6.992;2023-05-08T09:41:07;16.10;;;8.60;;
61200;SDS011;47065;52.898;6.992;2023-05-08T09:43:34;9.55;;;8.70;;
61200;SDS011;47065;52.898;6.992;2023-05-08T09:46:19;9.07;;;8.27;;
61200;SDS011;47065;52.898;6.992;2023-05-08T09:48:49;8.90;;;8.18;;
61200;SDS011;47065;52.898;6.992;2023-05-08T09:51:16;8.93;;;8.15;;
61200;SDS011;47065;52.898;6.992;2023-05-08T09:53:42;10.02;;;9.18;;
61200;SDS011;47065;52.898;6.992;2023-05-08T09:56:08;9.52;;;8.73;;
61200;SDS011;47065;52.898;6.992;2023-05-08T09:58:40;11.20;;;8.48;;
61200;SDS011;47065;52.898;6.992;2023-05-08T10:01:08;9.18;;;8.40;;
61200;SDS011;47065;52.898;6.992;2023-05-08T10:04:01;9.88;;;8.88;;
61200;SDS011;47065;52.898;6.992;2023-05-08T10:06:29;10.32;;;9.48;;
61200;SDS011;47065;52.898;6.992;2023-05-08T10:11:50;10.30;;;9.50;;
61200;SDS011;47065;52.898;6.992;2023-05-08T10:14:16;11.85;;;10.45;;
61200;SDS011;47065;52.898;6.992;2023-05-08T10:16:43;10.70;;;9.80;;
61200;SDS011;47065;52.898;6.992;2023-05-08T10:19:17;10.07;;;9.27;;
61200;SDS011;47065;52.898;6.992;2023-05-08T10:21:50;10.57;;;9.38;;
61200;SDS011;47065;52.898;6.992;2023-05-08T10:24:19;10.00;;;9.02;;
61200;SDS011;47065;52.898;6.992;2023-05-08T10:29:24;9.60;;;8.80;;
61200;SDS011;47065;52.898;6.992;2023-05-08T10:31:57;11.60;;;10.43;;
61200;SDS011;47065;52.898;6.992;2023-05-08T10:34:25;11.23;;;10.32;;
61200;SDS011;47065;52.898;6.992;2023-05-08T10:36:51;11.05;;;10.13;;
61200;SDS011;47065;52.898;6.992;2023-05-08T10:39:17;12.02;;;10.82;;
61200;SDS011;47065;52.898;6.992;2023-05-08T10:41:43;11.50;;;10.40;;
61200;SDS011;47065;52.898;6.992;2023-05-08T10:44:09;12.75;;;11.57;;
61200;SDS011;47065;52.898;6.992;2023-05-08T10:46:39;12.55;;;10.00;;
61200;SDS011;47065;52.898;6.992;2023-05-08T10:49:23;11.23;;;10.25;;
61200;SDS011;47065;52.898;6.992;2023-05-08T10:52:14;12.40;;;11.10;;
61200;SDS011;47065;52.898;6.992;2023-05-08T10:55:08;14.32;;;11.23;;
61200;SDS011;47065;52.898;6.992;2023-05-08T11:03:23;11.15;;;10.15;;
61200;SDS011;47065;52.898;6.992;2023-05-08T11:05:51;20.75;;;10.85;;
61200;SDS011;47065;52.898;6.992;2023-05-08T11:08:18;12.48;;;11.20;;
61200;SDS011;47065;52.898;6.992;2023-05-08T11:13:49;11.10;;;9.90;;
61200;SDS011;47065;52.898;6.992;2023-05-08T11:16:17;15.23;;;12.02;;
61200;SDS011;47065;52.898;6.992;2023-05-08T11:19:15;12.13;;;10.93;;
61200;SDS011;47065;52.898;6.992;2023-05-08T11:24:40;13.93;;;11.40;;
61200;SDS011;47065;52.898;6.992;2023-05-08T11:27:31;10.70;;;9.70;;
61200;SDS011;47065;52.898;6.992;2023-05-08T11:30:22;12.18;;;10.82;;
61200;SDS011;47065;52.898;6.992;2023-05-08T11:38:27;14.80;;;11.10;;
61200;SDS011;47065;52.898;6.992;2023-05-08T11:46:05;13.75;;;10.38;;
61200;SDS011;47065;52.898;6.992;2023-05-08T11:48:37;12.38;;;11.25;;
61200;SDS011;47065;52.898;6.992;2023-05-08T11:51:03;12.07;;;10.95;;
61200;SDS011;47065;52.898;6.992;2023-05-08T11:53:29;13.75;;;12.43;;
61200;SDS011;47065;52.898;6.992;2023-05-08T11:55:55;13.80;;;12.20;;
61200;SDS011;47065;52.898;6.992;2023-05-08T11:58:21;12.98;;;11.63;;
61200;SDS011;47065;52.898;6.992;2023-05-08T12:00:47;12.57;;;11.15;;
61200;SDS011;47065;52.898;6.992;2023-05-08T12:03:14;19.70;;;13.65;;
61200;SDS011;47065;52.898;6.992;2023-05-08T12:05:41;15.18;;;13.68;;
61200;SDS011;47065;52.898;6.992;2023-05-08T12:08:10;15.65;;;14.05;;
61200;SDS011;47065;52.898;6.992;2023-05-08T12:15:48;13.50;;;12.25;;
61200;SDS011;47065;52.898;6.992;2023-05-08T12:18:17;14.80;;;13.23;;
61200;SDS011;47065;52.898;6.992;2023-05-08T12:20:43;14.48;;;12.98;;
61200;SDS011;47065;52.898;6.992;2023-05-08T12:23:09;16.27;;;13.68;;
61200;SDS011;47065;52.898;6.992;2023-05-08T12:25:36;12.70;;;11.40;;
61200;SDS011;47065;52.898;6.992;2023-05-08T12:28:03;12.73;;;11.18;;
61200;SDS011;47065;52.898;6.992;2023-05-08T12:30:31;12.30;;;11.00;;
61200;SDS011;47065;52.898;6.992;2023-05-08T12:32:57;12.07;;;10.70;;
61200;SDS011;47065;52.898;6.992;2023-05-08T12:35:24;11.70;;;10.35;;
61200;SDS011;47065;52.898;6.992;2023-05-08T12:37:51;14.55;;;11.13;;
61200;SDS011;47065;52.898;6.992;2023-05-08T12:40:26;12.20;;;10.90;;
61200;SDS011;47065;52.898;6.992;2023-05-08T12:42:59;12.60;;;11.18;;
61200;SDS011;47065;52.898;6.992;2023-05-08T12:45:30;12.32;;;10.57;;
61200;SDS011;47065;52.898;6.992;2023-05-08T12:48:02;12.32;;;10.30;;
61200;SDS011;47065;52.898;6.992;2023-05-08T12:50:43;14.65;;;11.13;;
61200;SDS011;47065;52.898;6.992;2023-05-08T12:53:13;12.73;;;11.52;;
61200;SDS011;47065;52.898;6.992;2023-05-08T12:58:35;15.13;;;13.30;;
61200;SDS011;47065;52.898;6.992;2023-05-08T13:01:06;13.80;;;12.40;;
61200;SDS011;47065;52.898;6.992;2023-05-08T13:03:35;13.80;;;12.23;;
61200;SDS011;47065;52.898;6.992;2023-05-08T13:06:02;14.30;;;12.93;;
61200;SDS011;47065;52.898;6.992;2023-05-08T13:08:37;14.35;;;13.00;;
61200;SDS011;47065;52.898;6.992;2023-05-08T13:11:03;13.43;;;11.07;;
61200;SDS011;47065;52.898;6.992;2023-05-08T13:13:32;19.05;;;12.55;;
61200;SDS011;47065;52.898;6.992;2023-05-08T13:16:05;15.18;;;12.57;;
61200;SDS011;47065;52.898;6.992;2023-05-08T13:18:31;12.95;;;11.57;;
61200;SDS011;47065;52.898;6.992;2023-05-08T13:20:57;17.27;;;12.82;;
61200;SDS011;47065;52.898;6.992;2023-05-08T13:23:23;13.25;;;11.93;;
61200;SDS011;47065;52.898;6.992;2023-05-08T13:25:49;19.48;;;12.20;;
61200;SDS011;47065;52.898;6.992;2023-05-08T13:28:15;11.25;;;10.05;;
61200;SDS011;47065;52.898;6.992;2023-05-08T13:30:41;12.70;;;10.63;;
61200;SDS011;47065;52.898;6.992;2023-05-08T13:33:07;11.45;;;9.25;;
61200;SDS011;47065;52.898;6.992;2023-05-08T13:35:33;12.05;;;10.60;;
61200;SDS011;47065;52.898;6.992;2023-05-08T13:37:59;11.00;;;10.00;;
61200;SDS011;47065;52.898;6.992;2023-05-08T13:40:25;10.35;;;9.32;;
61200;SDS011;47065;52.898;6.992;2023-05-08T13:42:51;8.93;;;7.97;;
61200;SDS011;47065;52.898;6.992;2023-05-08T13:45:17;10.18;;;9.15;;
61200;SDS011;47065;52.898;6.992;2023-05-08T13:47:43;10.90;;;9.73;;
61200;SDS011;47065;52.898;6.992;2023-05-08T13:50:10;10.10;;;9.10;;
61200;SDS011;47065;52.898;6.992;2023-05-08T13:52:37;10.07;;;8.77;;
61200;SDS011;47065;52.898;6.992;2023-05-08T13:55:04;11.88;;;9.73;;
61200;SDS011;47065;52.898;6.992;2023-05-08T13:57:31;12.48;;;9.65;;
61200;SDS011;47065;52.898;6.992;2023-05-08T13:59:57;10.82;;;9.73;;
61200;SDS011;47065;52.898;6.992;2023-05-08T14:02:23;14.77;;;11.15;;
61200;SDS011;47065;52.898;6.992;2023-05-08T14:04:48;11.48;;;9.07;;
61200;SDS011;47065;52.898;6.992;2023-05-08T14:07:14;10.55;;;9.45;;
61200;SDS011;47065;52.898;6.992;2023-05-08T14:09:40;11.50;;;8.73;;
61200;SDS011;47065;52.898;6.992;2023-05-08T14:12:06;14.73;;;11.18;;
61200;SDS011;47065;52.898;6.992;2023-05-08T14:14:31;13.23;;;11.40;;
61200;SDS011;47065;52.898;6.992;2023-05-08T14:16:57;16.65;;;12.35;;
61200;SDS011;47065;52.898;6.992;2023-05-08T14:19:23;16.83;;;11.15;;
61200;SDS011;47065;52.898;6.992;2023-05-08T14:21:48;14.85;;;11.68;;
61200;SDS011;47065;52.898;6.992;2023-05-08T14:24:14;14.18;;;12.68;;
61200;SDS011;47065;52.898;6.992;2023-05-08T14:26:39;14.77;;;12.40;;
61200;SDS011;47065;52.898;6.992;2023-05-08T14:29:05;14.70;;;11.73;;
61200;SDS011;47065;52.898;6.992;2023-05-08T14:31:31;14.98;;;11.35;;
61200;SDS011;47065;52.898;6.992;2023-05-08T14:33:56;15.45;;;11.27;;
61200;SDS011;47065;52.898;6.992;2023-05-08T14:36:22;14.48;;;12.68;;
61200;SDS011;47065;52.898;6.992;2023-05-08T14:38:47;13.00;;;11.45;;
61200;SDS011;47065;52.898;6.992;2023-05-08T14:41:13;13.35;;;11.00;;
61200;SDS011;47065;52.898;6.992;2023-05-08T14:43:39;13.82;;;12.50;;
61200;SDS011;47065;52.898;6.992;2023-05-08T14:46:06;14.60;;;11.38;;
61200;SDS011;47065;52.898;6.992;2023-05-08T14:48:32;13.13;;;10.50;;
61200;SDS011;47065;52.898;6.992;2023-05-08T14:50:58;16.33;;;10.80;;
61200;SDS011;47065;52.898;6.992;2023-05-08T14:53:23;11.57;;;9.55;;
61200;SDS011;47065;52.898;6.992;2023-05-08T14:55:49;11.25;;;10.15;;
61200;SDS011;47065;52.898;6.992;2023-05-08T14:58:15;13.82;;;10.20;;
61200;SDS011;47065;52.898;6.992;2023-05-08T15:00:40;10.07;;;9.05;;
61200;SDS011;47065;52.898;6.992;2023-05-08T15:03:06;7.72;;;6.95;;
61200;SDS011;47065;52.898;6.992;2023-05-08T15:05:31;18.38;;;10.45;;
61200;SDS011;47065;52.898;6.992;2023-05-08T15:07:57;8.63;;;7.80;;
61200;SDS011;47065;52.898;6.992;2023-05-08T15:10:23;7.50;;;6.90;;
61200;SDS011;47065;52.898;6.992;2023-05-08T15:12:49;6.00;;;5.05;;
61200;SDS011;47065;52.898;6.992;2023-05-08T15:15:14;4.55;;;4.22;;
61200;SDS011;47065;52.898;6.992;2023-05-08T15:17:40;5.00;;;4.07;;
61200;SDS011;47065;52.898;6.992;2023-05-08T15:20:06;4.00;;;3.67;;
61200;SDS011;47065;52.898;6.992;2023-05-08T15:22:33;4.55;;;3.33;;
61200;SDS011;47065;52.898;6.992;2023-05-08T15:24:59;3.15;;;2.50;;
61200;SDS011;47065;52.898;6.992;2023-05-08T15:27:29;2.92;;;2.72;;
61200;SDS011;47065;52.898;6.992;2023-05-08T15:29:55;4.22;;;3.05;;
61200;SDS011;47065;52.898;6.992;2023-05-08T15:32:21;4.25;;;2.92;;
61200;SDS011;47065;52.898;6.992;2023-05-08T15:34:47;3.28;;;2.95;;
61200;SDS011;47065;52.898;6.992;2023-05-08T15:37:12;2.67;;;2.47;;
61200;SDS011;47065;52.898;6.992;2023-05-08T15:39:38;2.50;;;2.30;;
61200;SDS011;47065;52.898;6.992;2023-05-08T15:42:04;4.20;;;2.30;;
61200;SDS011;47065;52.898;6.992;2023-05-08T15:44:30;1.92;;;1.80;;